Coral Electra — PCAG — position and weather

sailwx.info

Track history (hours):
 
Tides and Currents Weather Stations Pressure Air Temp Water Temp Dewpoint Dewpoint Depression Visibility Wind Speed Wind Dir Waves Ship Positions

Coral Electra

Last reported at 2014-Oct-26 01:32 UTC. Time now 2014-Oct-26 01:53 UTC.
Position N 53°27' E 006°50'.

Length 14 m; draft 2 m.

Type: Port tender. MMSI: 244690019.

Date/timePositionNaut miles runAvg speedWind from/ knotsBaromVisibWave heightAir tempDewpointWater temp
2014-Oct-26 01:32N 53°27' E 006°50'0 0.0
2014-Oct-26 00:32N 53°27' E 006°50'0 0.0
2014-Oct-25 23:32N 53°27' E 006°50'0 0.0
2014-Oct-25 22:32N 53°27' E 006°50'0 0.0
2014-Oct-25 21:32N 53°27' E 006°50'0 0.0
2014-Oct-25 20:32N 53°27' E 006°50'0 0.0
2014-Oct-25 19:32N 53°27' E 006°50'0 0.0
2014-Oct-25 18:32N 53°27' E 006°50'0 0.0
2014-Oct-25 17:32N 53°27' E 006°50'2 1.5
2014-Oct-25 16:32N 53°28' E 006°50'3 3.4
2014-Oct-25 15:33N 53°31' E 006°47'5 4.5
2014-Oct-25 14:32N 53°27' E 006°50'0 0.0
2014-Oct-25 13:32N 53°27' E 006°50'0 0.0
2014-Oct-25 12:32N 53°27' E 006°50'0 0.1
2014-Oct-25 11:31N 53°27' E 006°49'1 1.3
2014-Oct-25 10:33N 53°28' E 006°49'7 6.7
2014-Oct-25 09:33N 53°32' E 006°40'8 7.5
2014-Oct-25 08:32N 53°27' E 006°50'0 0.0
2014-Oct-25 07:32N 53°27' E 006°50'0 0.0
2014-Oct-25 06:32N 53°27' E 006°50'0 0.0
2014-Oct-25 05:32N 53°27' E 006°50'0 0.0
2014-Oct-25 04:32N 53°27' E 006°50'0 0.0
2014-Oct-25 03:32N 53°27' E 006°50'0 0.0
2014-Oct-25 02:32N 53°27' E 006°50'0 0.0
2014-Oct-25 01:32N 53°27' E 006°50'0 0.0
2014-Oct-25 00:32N 53°27' E 006°50'0 0.0
2014-Oct-24 23:23N 53°27' E 006°50'0 0.0
2014-Oct-24 22:28N 53°27' E 006°50'0 0.0
2014-Oct-24 21:19N 53°27' E 006°50'0 0.0
2014-Oct-24 20:31N 53°27' E 006°50'0 0.0
2014-Oct-24 19:31N 53°27' E 006°50'0 0.0
2014-Oct-24 18:31N 53°27' E 006°50'0 0.0
2014-Oct-24 17:31N 53°27' E 006°50'0 0.0
2014-Oct-24 16:31N 53°27' E 006°50'0 0.0
2014-Oct-24 15:31N 53°27' E 006°50'8 6.9
2014-Oct-24 14:19N 53°33' E 006°40'810.7
2014-Oct-24 13:33N 53°27' E 006°50'0 0.0
2014-Oct-24 12:33N 53°27' E 006°50'0 0.1
2014-Oct-24 11:33N 53°27' E 006°49'9 2.0
2014-Oct-24 07:14N 53°33' E 006°39'912.6
2014-Oct-24 06:33N 53°27' E 006°50'0 0.5
2014-Oct-24 05:31N 53°27' E 006°50'0 0.0
2014-Oct-24 04:31N 53°27' E 006°50'0 0.0
2014-Oct-24 03:31N 53°27' E 006°50'0 0.0
2014-Oct-24 02:31N 53°27' E 006°50'0 0.0
2014-Oct-24 01:31N 53°27' E 006°50'0 0.0
2014-Oct-24 00:31N 53°27' E 006°50'0 0.0
2014-Oct-23 23:31N 53°27' E 006°50'0 0.0
2014-Oct-23 22:31N 53°27' E 006°50'0 0.0
2014-Oct-23 21:28N 53°27' E 006°50'0 0.0
2014-Oct-23 20:28N 53°27' E 006°50'0 0.0
2014-Oct-23 19:25N 53°27' E 006°50'0 0.0
2014-Oct-23 18:31N 53°27' E 006°50'0 0.0
2014-Oct-23 17:31N 53°27' E 006°50'0 0.0
2014-Oct-23 16:31N 53°27' E 006°50'4 2.0
2014-Oct-23 14:33N 53°29' E 006°44'4 3.9
2014-Oct-23 13:33N 53°27' E 006°50'0 0.0
2014-Oct-23 12:33N 53°27' E 006°50'0 0.0
2014-Oct-23 11:33N 53°27' E 006°50'0 0.0
2014-Oct-23 10:33N 53°27' E 006°50'0 0.0
2014-Oct-23 09:33N 53°27' E 006°50'0 0.0
2014-Oct-23 08:33N 53°27' E 006°50'0 0.0
2014-Oct-23 07:33N 53°27' E 006°50'0 0.0
2014-Oct-23 05:33N 53°27' E 006°50'0 0.1
2014-Oct-23 04:31N 53°27' E 006°50'0 0.0
2014-Oct-23 03:28N 53°27' E 006°50'0 0.0
2014-Oct-23 02:31N 53°27' E 006°50'0 0.0
2014-Oct-23 01:31N 53°27' E 006°50'0 0.0
2014-Oct-23 00:31N 53°27' E 006°50'0 0.0
2014-Oct-22 23:31N 53°27' E 006°50'0 0.0
2014-Oct-22 22:31N 53°27' E 006°50'0 0.0
2014-Oct-22 21:32N 53°27' E 006°50'0 0.0
2014-Oct-22 20:32N 53°27' E 006°50'0 0.0
2014-Oct-22 19:32N 53°27' E 006°50'0 0.0
2014-Oct-22 18:32N 53°27' E 006°50'0 0.0
2014-Oct-22 17:32N 53°27' E 006°50'0 0.0
2014-Oct-22 16:32N 53°27' E 006°50'9 7.5
2014-Oct-22 15:21N 53°33' E 006°39'810.2
2014-Oct-22 14:32N 53°28' E 006°50'1 1.1
2014-Oct-22 13:31N 53°27' E 006°50'0 0.0
2014-Oct-22 12:22N 53°27' E 006°50'0 0.0
2014-Oct-22 11:28N 53°27' E 006°50'0 0.0
2014-Oct-22 10:25N 53°27' E 006°50'5 2.8
2014-Oct-22 08:31N 53°30' E 006°42'5 4.5
2014-Oct-22 07:23N 53°27' E 006°49'7 0.6
2014-Oct-21 18:25N 53°34' E 006°45'6 2.1
2014-Oct-21 15:33N 53°28' E 006°49'2 1.5
2014-Oct-21 14:33N 53°27' E 006°50'0 0.0
2014-Oct-21 13:33N 53°27' E 006°50'0 0.0
2014-Oct-21 12:33N 53°27' E 006°50'0 0.0
2014-Oct-21 11:30N 53°27' E 006°50'0 0.0
2014-Oct-21 10:33N 53°27' E 006°50'0 0.0
2014-Oct-21 09:33N 53°27' E 006°50'0 0.0
2014-Oct-21 08:33N 53°27' E 006°50'1 0.4
2014-Oct-21 06:33N 53°27' E 006°50'1 0.7
2014-Oct-21 05:31N 53°27' E 006°50'0 0.0
2014-Oct-21 04:34N 53°27' E 006°50'0 0.0
2014-Oct-21 03:34N 53°27' E 006°50'0 0.0
2014-Oct-21 02:34N 53°27' E 006°50'0 0.0
2014-Oct-21 01:22N 53°27' E 006°50'0 0.0
2014-Oct-21 00:33N 53°27' E 006°50'0 0.0
2014-Oct-20 23:33N 53°27' E 006°50'0 0.0
2014-Oct-20 22:34N 53°27' E 006°50'0 0.0
2014-Oct-20 21:31N 53°27' E 006°50'0 0.0
2014-Oct-20 20:31N 53°27' E 006°50'0 0.0
2014-Oct-20 19:30N 53°27' E 006°50'0 0.0
2014-Oct-20 18:33N 53°27' E 006°50'0 0.0
2014-Oct-20 17:33N 53°27' E 006°50'0 0.0
2014-Oct-20 16:33N 53°27' E 006°50'0 0.0
2014-Oct-20 15:24N 53°27' E 006°50'0 0.0
2014-Oct-20 14:34N 53°27' E 006°50'0 0.0
2014-Oct-20 13:33N 53°27' E 006°50'0 0.0
2014-Oct-20 12:30N 53°27' E 006°50'0 0.0
2014-Oct-20 11:33N 53°27' E 006°50'0 0.0
2014-Oct-20 10:33N 53°27' E 006°50'0 0.1
2014-Oct-20 09:33N 53°27' E 006°50'9 4.3
2014-Oct-20 07:30N 53°32' E 006°38'1 0.9
2014-Oct-20 06:17N 53°32' E 006°40'810.9
2014-Oct-20 05:33N 53°27' E 006°50'1 0.9
2014-Oct-20 04:33N 53°27' E 006°50'0 0.0
2014-Oct-20 03:30N 53°27' E 006°50'0 0.0
2014-Oct-20 02:33N 53°27' E 006°50'0 0.0
2014-Oct-20 01:33N 53°27' E 006°50'0 0.0
2014-Oct-20 00:33N 53°27' E 006°50'0 0.0
2014-Oct-19 23:33N 53°27' E 006°50'0 0.0
2014-Oct-19 22:33N 53°27' E 006°50'0 0.0
2014-Oct-19 21:33N 53°27' E 006°50'0 0.0
2014-Oct-19 20:27N 53°27' E 006°50'0 0.0
2014-Oct-19 19:33N 53°27' E 006°50'0 0.0
2014-Oct-19 18:30N 53°27' E 006°50'0 0.0
2014-Oct-19 17:30N 53°27' E 006°50'0 0.0
2014-Oct-19 16:33N 53°27' E 006°50'0 0.0
2014-Oct-19 15:33N 53°27' E 006°50'0 0.0
2014-Oct-19 14:30N 53°27' E 006°50'0 0.0
2014-Oct-19 13:33N 53°27' E 006°50'0 0.0
2014-Oct-19 12:27N 53°27' E 006°50'0 0.0
2014-Oct-19 11:33N 53°27' E 006°50'0 0.0
2014-Oct-19 10:33N 53°27' E 006°50'0 0.0
2014-Oct-19 09:33N 53°27' E 006°50'0 0.0
2014-Oct-19 08:33N 53°27' E 006°50'0 0.0
2014-Oct-19 07:33N 53°27' E 006°50'9 7.3
2014-Oct-19 06:20N 53°32' E 006°38'911.4
2014-Oct-19 05:33N 53°27' E 006°50'7 6.1
2014-Oct-19 04:20N 53°34' E 006°45'7 9.2
2014-Oct-19 03:31N 53°27' E 006°50'0 0.0
2014-Oct-19 02:31N 53°27' E 006°50'0 0.0
2014-Oct-19 01:31N 53°27' E 006°50'0 0.0
2014-Oct-19 00:31N 53°27' E 006°50'0 0.3
2014-Oct-18 23:31N 53°27' E 006°49'9 2.6
2014-Oct-18 20:03N 53°33' E 006°39'918.0
2014-Oct-18 19:33N 53°27' E 006°50'7 3.0
2014-Oct-18 17:14N 53°34' E 006°45'2 3.0
2014-Oct-18 16:33N 53°33' E 006°42'8 8.1
2014-Oct-18 15:33N 53°27' E 006°50'3 3.5
2014-Oct-18 14:33N 53°29' E 006°45'3 2.9
2014-Oct-18 13:22N 53°27' E 006°50'0 0.0
2014-Oct-18 12:31N 53°27' E 006°50'0 0.0
2014-Oct-18 11:28N 53°27' E 006°50'0 0.0
2014-Oct-18 10:31N 53°27' E 006°50'0 0.3
2014-Oct-18 09:33N 53°27' E 006°49'7 5.4
2014-Oct-18 08:17N 53°31' E 006°41'7 9.2
2014-Oct-18 07:32N 53°27' E 006°49'5 1.8
2014-Oct-18 04:32N 53°32' E 006°45'5 1.6
2014-Oct-18 01:33N 53°33' E 006°37'7 7.4
2014-Oct-18 00:33N 53°28' E 006°48'7 6.8
2014-Oct-17 23:30N 53°33' E 006°38'3 2.9
2014-Oct-17 22:33N 53°31' E 006°41'3 0.7
2014-Oct-17 17:31N 53°34' E 006°45'0 0.2
2014-Oct-17 16:31N 53°34' E 006°45'4 1.1
2014-Oct-17 12:30N 53°32' E 006°38'4 3.2
2014-Oct-17 11:08N 53°32' E 006°45'6 8.7
2014-Oct-17 10:30N 53°27' E 006°50'6 1.7
2014-Oct-17 07:07N 53°30' E 006°42'4 7.1
2014-Oct-17 06:31N 53°29' E 006°49'4 2.0
2014-Oct-17 04:33N 53°32' E 006°45'6 5.8
2014-Oct-17 03:32N 53°27' E 006°50'9 2.9
2014-Oct-17 00:21N 53°33' E 006°37'0 0.0
2014-Oct-16 23:21N 53°33' E 006°37'0 0.0
2014-Oct-16 22:18N 53°33' E 006°37'3 0.8
2014-Oct-16 18:24N 53°33' E 006°43'1 1.3
2014-Oct-16 17:13N 53°34' E 006°45'3 4.5
2014-Oct-16 16:33N 53°33' E 006°40'9 8.4
2014-Oct-16 15:32N 53°27' E 006°50'0 0.2
2014-Oct-16 14:33N 53°27' E 006°49'9 6.6
2014-Oct-16 13:15N 53°32' E 006°38'1 0.8
2014-Oct-16 12:11N 53°33' E 006°39'914.0
2014-Oct-16 11:33N 53°27' E 006°50'2 0.9
2014-Oct-16 09:33N 53°28' E 006°48'6 2.8
2014-Oct-16 07:32N 53°32' E 006°40'2 0.6
2014-Oct-16 04:33N 53°33' E 006°43'7 6.9
2014-Oct-16 03:33N 53°27' E 006°50'  
Track history (hours):
 
Tides and Currents Weather Stations Pressure Air Temp Water Temp Dewpoint Dewpoint Depression Visibility Wind Speed Wind Dir Waves Ship Positions

Coral Electra

Last reported at 2014-Oct-26 01:32 UTC. Time now 2014-Oct-26 01:53 UTC.
Position N 53°27' E 006°50'.

Length 14 m; draft 2 m.

Type: Port tender. MMSI: 244690019.

Date/timePositionNaut miles runAvg speedWind from/ knotsBaromVisibWave heightAir tempDewpointWater temp
2014-Oct-26 01:32N 53°27' E 006°50'0 0.0
2014-Oct-26 00:32N 53°27' E 006°50'0 0.0
2014-Oct-25 23:32N 53°27' E 006°50'0 0.0
2014-Oct-25 22:32N 53°27' E 006°50'0 0.0
2014-Oct-25 21:32N 53°27' E 006°50'0 0.0
2014-Oct-25 20:32N 53°27' E 006°50'0 0.0
2014-Oct-25 19:32N 53°27' E 006°50'0 0.0
2014-Oct-25 18:32N 53°27' E 006°50'0 0.0
2014-Oct-25 17:32N 53°27' E 006°50'2 1.5
2014-Oct-25 16:32N 53°28' E 006°50'3 3.4
2014-Oct-25 15:33N 53°31' E 006°47'5 4.5
2014-Oct-25 14:32N 53°27' E 006°50'0 0.0
2014-Oct-25 13:32N 53°27' E 006°50'0 0.0
2014-Oct-25 12:32N 53°27' E 006°50'0 0.1
2014-Oct-25 11:31N 53°27' E 006°49'1 1.3
2014-Oct-25 10:33N 53°28' E 006°49'7 6.7
2014-Oct-25 09:33N 53°32' E 006°40'8 7.5
2014-Oct-25 08:32N 53°27' E 006°50'0 0.0
2014-Oct-25 07:32N 53°27' E 006°50'0 0.0
2014-Oct-25 06:32N 53°27' E 006°50'0 0.0
2014-Oct-25 05:32N 53°27' E 006°50'0 0.0
2014-Oct-25 04:32N 53°27' E 006°50'0 0.0
2014-Oct-25 03:32N 53°27' E 006°50'0 0.0
2014-Oct-25 02:32N 53°27' E 006°50'0 0.0
2014-Oct-25 01:32N 53°27' E 006°50'0 0.0
2014-Oct-25 00:32N 53°27' E 006°50'0 0.0
2014-Oct-24 23:23N 53°27' E 006°50'0 0.0
2014-Oct-24 22:28N 53°27' E 006°50'0 0.0
2014-Oct-24 21:19N 53°27' E 006°50'0 0.0
2014-Oct-24 20:31N 53°27' E 006°50'0 0.0
2014-Oct-24 19:31N 53°27' E 006°50'0 0.0
2014-Oct-24 18:31N 53°27' E 006°50'0 0.0
2014-Oct-24 17:31N 53°27' E 006°50'0 0.0
2014-Oct-24 16:31N 53°27' E 006°50'0 0.0
2014-Oct-24 15:31N 53°27' E 006°50'8 6.9
2014-Oct-24 14:19N 53°33' E 006°40'810.7
2014-Oct-24 13:33N 53°27' E 006°50'0 0.0
2014-Oct-24 12:33N 53°27' E 006°50'0 0.1
2014-Oct-24 11:33N 53°27' E 006°49'9 2.0
2014-Oct-24 07:14N 53°33' E 006°39'912.6
2014-Oct-24 06:33N 53°27' E 006°50'0 0.5
2014-Oct-24 05:31N 53°27' E 006°50'0 0.0
2014-Oct-24 04:31N 53°27' E 006°50'0 0.0
2014-Oct-24 03:31N 53°27' E 006°50'0 0.0
2014-Oct-24 02:31N 53°27' E 006°50'0 0.0
2014-Oct-24 01:31N 53°27' E 006°50'0 0.0
2014-Oct-24 00:31N 53°27' E 006°50'0 0.0
2014-Oct-23 23:31N 53°27' E 006°50'0 0.0
2014-Oct-23 22:31N 53°27' E 006°50'0 0.0
2014-Oct-23 21:28N 53°27' E 006°50'0 0.0
2014-Oct-23 20:28N 53°27' E 006°50'0 0.0
2014-Oct-23 19:25N 53°27' E 006°50'0 0.0
2014-Oct-23 18:31N 53°27' E 006°50'0 0.0
2014-Oct-23 17:31N 53°27' E 006°50'0 0.0
2014-Oct-23 16:31N 53°27' E 006°50'4 2.0
2014-Oct-23 14:33N 53°29' E 006°44'4 3.9
2014-Oct-23 13:33N 53°27' E 006°50'0 0.0
2014-Oct-23 12:33N 53°27' E 006°50'0 0.0
2014-Oct-23 11:33N 53°27' E 006°50'0 0.0
2014-Oct-23 10:33N 53°27' E 006°50'0 0.0
2014-Oct-23 09:33N 53°27' E 006°50'0 0.0
2014-Oct-23 08:33N 53°27' E 006°50'0 0.0
2014-Oct-23 07:33N 53°27' E 006°50'0 0.0
2014-Oct-23 05:33N 53°27' E 006°50'0 0.1
2014-Oct-23 04:31N 53°27' E 006°50'0 0.0
2014-Oct-23 03:28N 53°27' E 006°50'0 0.0
2014-Oct-23 02:31N 53°27' E 006°50'0 0.0
2014-Oct-23 01:31N 53°27' E 006°50'0 0.0
2014-Oct-23 00:31N 53°27' E 006°50'0 0.0
2014-Oct-22 23:31N 53°27' E 006°50'0 0.0
2014-Oct-22 22:31N 53°27' E 006°50'0 0.0
2014-Oct-22 21:32N 53°27' E 006°50'0 0.0
2014-Oct-22 20:32N 53°27' E 006°50'0 0.0
2014-Oct-22 19:32N 53°27' E 006°50'0 0.0
2014-Oct-22 18:32N 53°27' E 006°50'0 0.0
2014-Oct-22 17:32N 53°27' E 006°50'0 0.0
2014-Oct-22 16:32N 53°27' E 006°50'9 7.5
2014-Oct-22 15:21N 53°33' E 006°39'810.2
2014-Oct-22 14:32N 53°28' E 006°50'1 1.1
2014-Oct-22 13:31N 53°27' E 006°50'0 0.0
2014-Oct-22 12:22N 53°27' E 006°50'0 0.0
2014-Oct-22 11:28N 53°27' E 006°50'0 0.0
2014-Oct-22 10:25N 53°27' E 006°50'5 2.8
2014-Oct-22 08:31N 53°30' E 006°42'5 4.5
2014-Oct-22 07:23N 53°27' E 006°49'7 0.6
2014-Oct-21 18:25N 53°34' E 006°45'6 2.1
2014-Oct-21 15:33N 53°28' E 006°49'2 1.5
2014-Oct-21 14:33N 53°27' E 006°50'0 0.0
2014-Oct-21 13:33N 53°27' E 006°50'0 0.0
2014-Oct-21 12:33N 53°27' E 006°50'0 0.0
2014-Oct-21 11:30N 53°27' E 006°50'0 0.0
2014-Oct-21 10:33N 53°27' E 006°50'0 0.0
2014-Oct-21 09:33N 53°27' E 006°50'0 0.0
2014-Oct-21 08:33N 53°27' E 006°50'1 0.4
2014-Oct-21 06:33N 53°27' E 006°50'1 0.7
2014-Oct-21 05:31N 53°27' E 006°50'0 0.0
2014-Oct-21 04:34N 53°27' E 006°50'0 0.0
2014-Oct-21 03:34N 53°27' E 006°50'0 0.0
2014-Oct-21 02:34N 53°27' E 006°50'0 0.0
2014-Oct-21 01:22N 53°27' E 006°50'0 0.0
2014-Oct-21 00:33N 53°27' E 006°50'0 0.0
2014-Oct-20 23:33N 53°27' E 006°50'0 0.0
2014-Oct-20 22:34N 53°27' E 006°50'0 0.0
2014-Oct-20 21:31N 53°27' E 006°50'0 0.0
2014-Oct-20 20:31N 53°27' E 006°50'0 0.0
2014-Oct-20 19:30N 53°27' E 006°50'0 0.0
2014-Oct-20 18:33N 53°27' E 006°50'0 0.0
2014-Oct-20 17:33N 53°27' E 006°50'0 0.0
2014-Oct-20 16:33N 53°27' E 006°50'0 0.0
2014-Oct-20 15:24N 53°27' E 006°50'0 0.0
2014-Oct-20 14:34N 53°27' E 006°50'0 0.0
2014-Oct-20 13:33N 53°27' E 006°50'0 0.0
2014-Oct-20 12:30N 53°27' E 006°50'0 0.0
2014-Oct-20 11:33N 53°27' E 006°50'0 0.0
2014-Oct-20 10:33N 53°27' E 006°50'0 0.1
2014-Oct-20 09:33N 53°27' E 006°50'9 4.3
2014-Oct-20 07:30N 53°32' E 006°38'1 0.9
2014-Oct-20 06:17N 53°32' E 006°40'810.9
2014-Oct-20 05:33N 53°27' E 006°50'1 0.9
2014-Oct-20 04:33N 53°27' E 006°50'0 0.0
2014-Oct-20 03:30N 53°27' E 006°50'0 0.0
2014-Oct-20 02:33N 53°27' E 006°50'0 0.0
2014-Oct-20 01:33N 53°27' E 006°50'0 0.0
2014-Oct-20 00:33N 53°27' E 006°50'0 0.0
2014-Oct-19 23:33N 53°27' E 006°50'0 0.0
2014-Oct-19 22:33N 53°27' E 006°50'0 0.0
2014-Oct-19 21:33N 53°27' E 006°50'0 0.0
2014-Oct-19 20:27N 53°27' E 006°50'0 0.0
2014-Oct-19 19:33N 53°27' E 006°50'0 0.0
2014-Oct-19 18:30N 53°27' E 006°50'0 0.0
2014-Oct-19 17:30N 53°27' E 006°50'0 0.0
2014-Oct-19 16:33N 53°27' E 006°50'0 0.0
2014-Oct-19 15:33N 53°27' E 006°50'0 0.0
2014-Oct-19 14:30N 53°27' E 006°50'0 0.0
2014-Oct-19 13:33N 53°27' E 006°50'0 0.0
2014-Oct-19 12:27N 53°27' E 006°50'0 0.0
2014-Oct-19 11:33N 53°27' E 006°50'0 0.0
2014-Oct-19 10:33N 53°27' E 006°50'0 0.0
2014-Oct-19 09:33N 53°27' E 006°50'0 0.0
2014-Oct-19 08:33N 53°27' E 006°50'0 0.0
2014-Oct-19 07:33N 53°27' E 006°50'9 7.3
2014-Oct-19 06:20N 53°32' E 006°38'911.4
2014-Oct-19 05:33N 53°27' E 006°50'7 6.1
2014-Oct-19 04:20N 53°34' E 006°45'7 9.2
2014-Oct-19 03:31N 53°27' E 006°50'0 0.0
2014-Oct-19 02:31N 53°27' E 006°50'0 0.0
2014-Oct-19 01:31N 53°27' E 006°50'0 0.0
2014-Oct-19 00:31N 53°27' E 006°50'0 0.3
2014-Oct-18 23:31N 53°27' E 006°49'9 2.6
2014-Oct-18 20:03N 53°33' E 006°39'918.0
2014-Oct-18 19:33N 53°27' E 006°50'7 3.0
2014-Oct-18 17:14N 53°34' E 006°45'2 3.0
2014-Oct-18 16:33N 53°33' E 006°42'8 8.1
2014-Oct-18 15:33N 53°27' E 006°50'3 3.5
2014-Oct-18 14:33N 53°29' E 006°45'3 2.9
2014-Oct-18 13:22N 53°27' E 006°50'0 0.0
2014-Oct-18 12:31N 53°27' E 006°50'0 0.0
2014-Oct-18 11:28N 53°27' E 006°50'0 0.0
2014-Oct-18 10:31N 53°27' E 006°50'0 0.3
2014-Oct-18 09:33N 53°27' E 006°49'7 5.4
2014-Oct-18 08:17N 53°31' E 006°41'7 9.2
2014-Oct-18 07:32N 53°27' E 006°49'5 1.8
2014-Oct-18 04:32N 53°32' E 006°45'5 1.6
2014-Oct-18 01:33N 53°33' E 006°37'7 7.4
2014-Oct-18 00:33N 53°28' E 006°48'7 6.8
2014-Oct-17 23:30N 53°33' E 006°38'3 2.9
2014-Oct-17 22:33N 53°31' E 006°41'3 0.7
2014-Oct-17 17:31N 53°34' E 006°45'0 0.2
2014-Oct-17 16:31N 53°34' E 006°45'4 1.1
2014-Oct-17 12:30N 53°32' E 006°38'4 3.2
2014-Oct-17 11:08N 53°32' E 006°45'6 8.7
2014-Oct-17 10:30N 53°27' E 006°50'6 1.7
2014-Oct-17 07:07N 53°30' E 006°42'4 7.1
2014-Oct-17 06:31N 53°29' E 006°49'4 2.0
2014-Oct-17 04:33N 53°32' E 006°45'6 5.8
2014-Oct-17 03:32N 53°27' E 006°50'9 2.9
2014-Oct-17 00:21N 53°33' E 006°37'0 0.0
2014-Oct-16 23:21N 53°33' E 006°37'0 0.0
2014-Oct-16 22:18N 53°33' E 006°37'3 0.8
2014-Oct-16 18:24N 53°33' E 006°43'1 1.3
2014-Oct-16 17:13N 53°34' E 006°45'3 4.5
2014-Oct-16 16:33N 53°33' E 006°40'9 8.4
2014-Oct-16 15:32N 53°27' E 006°50'0 0.2
2014-Oct-16 14:33N 53°27' E 006°49'9 6.6
2014-Oct-16 13:15N 53°32' E 006°38'1 0.8
2014-Oct-16 12:11N 53°33' E 006°39'914.0
2014-Oct-16 11:33N 53°27' E 006°50'2 0.9
2014-Oct-16 09:33N 53°28' E 006°48'6 2.8
2014-Oct-16 07:32N 53°32' E 006°40'2 0.6
2014-Oct-16 04:33N 53°33' E 006°43'7 6.9
2014-Oct-16 03:33N 53°27' E 006°50'  

Dump ship's entire track history